createdAt,value
2022-12-08T00:02:32.973Z,11.85
2022-12-08T00:24:59.007Z,8.88
2022-12-08T00:40:14.390Z,11.30
2022-12-08T00:42:41.696Z,11.73
2022-12-08T00:46:05.917Z,11.35
2022-12-08T00:49:17.185Z,13.30
2022-12-08T00:54:10.132Z,11.73
2022-12-08T00:56:20.146Z,9.93
2022-12-08T00:59:05.957Z,9.20
2022-12-08T01:02:25.252Z,8.98
2022-12-08T01:08:09.915Z,8.20
2022-12-08T01:10:38.596Z,11.48
2022-12-08T01:13:11.487Z,8.13
2022-12-08T01:16:08.828Z,8.52
2022-12-08T01:18:38.553Z,8.80
2022-12-08T01:27:21.302Z,10.02
2022-12-08T01:29:59.651Z,10.90
2022-12-08T01:32:57.792Z,9.48
2022-12-08T01:35:35.517Z,8.95
2022-12-08T01:38:08.046Z,10.40
2022-12-08T01:40:38.497Z,12.75
2022-12-08T01:43:20.289Z,7.85
2022-12-08T01:46:09.426Z,9.55
2022-12-08T01:48:48.051Z,9.90
2022-12-08T01:52:05.658Z,12.10
2022-12-08T01:54:44.454Z,13.05
2022-12-08T01:57:43.830Z,11.05
2022-12-08T02:00:16.935Z,12.98
2022-12-08T02:03:06.311Z,13.38
2022-12-08T02:05:41.817Z,14.23
2022-12-08T02:08:14.253Z,11.40
2022-12-08T02:14:16.706Z,14.82
2022-12-08T02:17:50.823Z,13.25
2022-12-08T02:20:41.795Z,13.32
2022-12-08T02:24:01.171Z,15.85
2022-12-08T02:27:17.745Z,17.15
2022-12-08T02:30:07.174Z,13.73
2022-12-08T02:33:18.832Z,18.15
2022-12-08T02:36:15.310Z,17.20
2022-12-08T02:39:31.569Z,22.20
2022-12-08T02:46:15.609Z,18.15
2022-12-08T02:49:13.768Z,15.55
2022-12-08T02:51:51.965Z,15.45
2022-12-08T02:54:26.559Z,16.05
2022-12-08T02:57:23.383Z,17.38
2022-12-08T03:00:07.755Z,16.60
2022-12-08T03:02:48.463Z,17.98
2022-12-08T03:10:00.199Z,16.60
2022-12-08T03:12:45.192Z,12.75
2022-12-08T03:15:17.373Z,13.40
2022-12-08T03:17:54.179Z,12.40
2022-12-08T03:20:27.804Z,12.40
2022-12-08T03:23:01.844Z,11.15
2022-12-08T03:25:33.466Z,10.88
2022-12-08T03:28:06.504Z,12.00
2022-12-08T03:30:46.417Z,10.48
2022-12-08T03:36:01.367Z,11.15
2022-12-08T03:38:41.738Z,11.10
2022-12-08T03:41:26.347Z,12.10
2022-12-08T03:44:00.648Z,13.38
2022-12-08T03:48:56.797Z,11.00
2022-12-08T03:51:49.378Z,12.35
2022-12-08T03:54:17.842Z,12.80
2022-12-08T03:56:51.419Z,10.40
2022-12-08T03:59:41.971Z,12.05
2022-12-08T04:02:13.577Z,11.90
2022-12-08T04:04:43.338Z,9.80
2022-12-08T04:07:36.199Z,9.90
2022-12-08T04:10:09.546Z,10.10
2022-12-08T04:12:54.928Z,8.40
2022-12-08T04:15:26.361Z,8.50
2022-12-08T04:17:59.247Z,9.00
2022-12-08T04:20:48.419Z,7.43
2022-12-08T04:24:49.643Z,7.80
2022-12-08T04:27:09.981Z,7.15
2022-12-08T04:30:02.865Z,6.88
2022-12-08T04:32:48.100Z,5.10
2022-12-08T04:35:47.520Z,6.03
2022-12-08T04:38:24.557Z,4.88
2022-12-08T04:45:05.175Z,5.82
2022-12-08T04:47:09.234Z,4.63
2022-12-08T04:49:38.867Z,5.20
2022-12-08T04:52:06.243Z,3.80
2022-12-08T04:54:33.804Z,2.70
2022-12-08T04:57:02.596Z,3.58
2022-12-08T04:59:30.281Z,4.57
2022-12-08T05:02:03.979Z,4.65
2022-12-08T05:04:31.374Z,4.60
2022-12-08T05:07:00.832Z,6.00
2022-12-08T05:09:33.842Z,4.13
2022-12-08T05:12:03.877Z,6.93
2022-12-08T05:14:33.405Z,5.07
2022-12-08T05:17:04.866Z,5.45
2022-12-08T05:19:35.077Z,6.35
2022-12-08T05:22:02.203Z,6.20
2022-12-08T05:24:33.784Z,7.15
2022-12-08T05:27:03.462Z,7.40
2022-12-08T05:29:30.747Z,8.63
2022-12-08T05:31:58.033Z,6.22
2022-12-08T05:34:25.454Z,9.20
2022-12-08T05:37:01.554Z,8.93
2022-12-08T05:39:31.601Z,9.65
2022-12-08T05:42:01.301Z,8.55
2022-12-08T05:44:31.138Z,9.30
2022-12-08T05:46:58.635Z,9.70
2022-12-08T05:49:35.190Z,7.57
2022-12-08T05:52:04.547Z,9.07
2022-12-08T05:54:34.562Z,8.57
2022-12-08T05:58:07.812Z,8.15
2022-12-08T06:00:50.114Z,7.43
2022-12-08T06:03:23.587Z,5.50
2022-12-08T06:06:27.493Z,7.43
2022-12-08T06:08:56.568Z,4.38
2022-12-08T06:11:28.587Z,4.60
2022-12-08T06:14:04.786Z,4.32
2022-12-08T06:16:32.221Z,3.00
2022-12-08T06:18:59.351Z,2.58
2022-12-08T06:21:34.948Z,2.60
2022-12-08T06:26:58.635Z,2.85
2022-12-08T06:29:36.062Z,2.28
2022-12-08T06:32:06.764Z,1.35
2022-12-08T06:34:43.010Z,1.88
2022-12-08T06:37:12.452Z,1.40
2022-12-08T06:43:57.750Z,2.55
2022-12-08T06:46:35.330Z,2.53
2022-12-08T06:49:10.894Z,2.05
2022-12-08T06:51:46.826Z,1.65
2022-12-08T06:54:31.514Z,1.15
2022-12-08T06:57:14.495Z,1.48
2022-12-08T07:00:11.900Z,1.63
2022-12-08T07:02:32.554Z,1.45
2022-12-08T07:05:03.290Z,2.03
2022-12-08T07:07:34.043Z,3.40
2022-12-08T07:10:24.331Z,1.85
2022-12-08T07:13:09.542Z,1.63
2022-12-08T07:15:39.477Z,3.50
2022-12-08T07:18:19.694Z,3.25
2022-12-08T07:21:00.812Z,2.00
2022-12-08T07:23:36.824Z,1.83
2022-12-08T07:26:08.469Z,3.13
2022-12-08T07:28:41.248Z,2.25
2022-12-08T07:31:31.447Z,1.83
2022-12-08T07:34:01.247Z,4.20
2022-12-08T07:36:32.665Z,1.60
2022-12-08T07:38:59.909Z,2.47
2022-12-08T07:41:27.165Z,3.25
2022-12-08T07:44:23.027Z,2.72
2022-12-08T07:47:18.954Z,2.35
2022-12-08T07:49:56.089Z,2.20
2022-12-08T07:52:26.347Z,1.88
2022-12-08T07:54:54.786Z,2.55
2022-12-08T07:57:45.419Z,2.45
2022-12-08T08:00:18.329Z,2.13
2022-12-08T08:02:56.652Z,2.55
2022-12-08T08:05:23.911Z,2.88
2022-12-08T08:08:01.507Z,3.10
2022-12-08T08:10:31.321Z,3.22
2022-12-08T08:13:01.711Z,3.42
2022-12-08T08:15:34.440Z,2.70
2022-12-08T08:18:01.922Z,3.42
2022-12-08T08:20:28.904Z,2.65
2022-12-08T08:23:13.768Z,3.25
2022-12-08T08:25:40.873Z,3.55
2022-12-08T08:28:07.902Z,2.88
2022-12-08T08:30:34.922Z,2.88
2022-12-08T08:33:01.942Z,3.80
2022-12-08T08:35:33.182Z,6.28
2022-12-08T08:38:01.220Z,3.67
2022-12-08T08:40:31.414Z,4.05
2022-12-08T08:43:00.183Z,2.92
2022-12-08T08:45:27.318Z,5.65
2022-12-08T08:47:57.659Z,5.05
2022-12-08T08:50:30.515Z,4.80
2022-12-08T08:53:04.303Z,4.30
2022-12-08T08:55:31.641Z,3.70
2022-12-08T08:57:58.752Z,4.05
2022-12-08T09:00:25.933Z,5.15
2022-12-08T09:03:01.335Z,4.55
2022-12-08T09:05:34.001Z,4.32
2022-12-08T09:08:07.288Z,3.55
2022-12-08T09:10:34.666Z,3.35
2022-12-08T09:13:24.785Z,2.72
2022-12-08T09:15:54.889Z,2.13
2022-12-08T09:18:27.382Z,1.60
2022-12-08T09:21:18.092Z,1.90
2022-12-08T09:26:56.117Z,1.67
2022-12-08T09:29:35.748Z,1.55
2022-12-08T09:32:05.906Z,2.47
2022-12-08T09:34:56.490Z,2.17
2022-12-08T09:37:30.708Z,2.25
2022-12-08T09:40:35.245Z,2.65
2022-12-08T09:43:20.459Z,2.38
2022-12-08T09:45:51.877Z,3.95
2022-12-08T09:48:24.482Z,3.67
2022-12-08T09:50:59.133Z,3.42
2022-12-08T09:53:55.638Z,4.05
2022-12-08T09:56:32.927Z,3.72
2022-12-08T09:59:27.234Z,4.25
2022-12-08T10:01:59.747Z,4.70
2022-12-08T10:04:32.519Z,3.53
2022-12-08T10:07:40.633Z,3.85
2022-12-08T10:10:22.779Z,4.28
2022-12-08T10:13:30.315Z,3.65
2022-12-08T10:16:33.725Z,3.53
2022-12-08T10:19:18.625Z,2.80
2022-12-08T10:21:46.155Z,4.00
2022-12-08T10:24:19.305Z,4.88
2022-12-08T10:26:52.915Z,4.35
2022-12-08T10:29:23.010Z,3.92
2022-12-08T10:31:50.286Z,3.85
2022-12-08T10:34:26.240Z,3.85
2022-12-08T10:37:01.085Z,3.35
2022-12-08T10:39:46.024Z,4.13
2022-12-08T10:42:22.597Z,2.55
2022-12-08T10:45:03.021Z,2.85
2022-12-08T10:51:03.355Z,1.92
2022-12-08T10:53:33.139Z,2.08
2022-12-08T10:56:03.343Z,1.60
2022-12-08T10:58:33.970Z,1.15
2022-12-08T11:01:25.571Z,1.42
2022-12-08T11:03:59.810Z,1.42
2022-12-08T11:06:37.355Z,1.20
2022-12-08T11:09:26.632Z,1.20
2022-12-08T11:16:48.483Z,1.50
2022-12-08T11:27:17.267Z,2.38
2022-12-08T11:30:01.627Z,1.75
2022-12-08T11:32:32.172Z,2.58
2022-12-08T11:35:07.530Z,2.47
2022-12-08T11:37:41.611Z,3.28
2022-12-08T11:40:28.787Z,4.03
2022-12-08T11:43:18.934Z,2.53
2022-12-08T11:46:02.467Z,2.90
2022-12-08T11:48:46.133Z,3.45
2022-12-08T11:51:39.757Z,4.55
2022-12-08T12:03:18.668Z,4.80
2022-12-08T12:10:02.912Z,3.95
2022-12-08T12:12:53.787Z,3.38
2022-12-08T12:16:21.808Z,4.05
2022-12-08T12:19:08.197Z,3.20
2022-12-08T12:21:47.093Z,3.92
2022-12-08T12:24:38.696Z,3.33
2022-12-08T12:27:48.754Z,3.97
2022-12-08T12:31:08.408Z,2.53
2022-12-08T12:33:37.736Z,3.40
2022-12-08T12:36:34.029Z,3.70
2022-12-08T12:39:26.513Z,3.22
2022-12-08T12:42:23.369Z,3.63
2022-12-08T12:45:25.219Z,2.42
2022-12-08T12:47:58.024Z,3.67
2022-12-08T12:50:34.303Z,2.70
2022-12-08T12:53:13.866Z,3.30
2022-12-08T12:55:50.360Z,3.97
2022-12-08T12:58:32.605Z,2.25
2022-12-08T13:01:53.263Z,2.22
2022-12-08T13:04:52.085Z,3.25
2022-12-08T13:08:18.158Z,1.67
2022-12-08T13:11:17.273Z,1.40
2022-12-08T13:14:10.833Z,1.25
2022-12-08T13:16:48.386Z,0.70
2022-12-08T13:19:25.717Z,1.67
2022-12-08T13:22:50.968Z,1.40
2022-12-08T13:25:40.809Z,1.42
2022-12-08T13:28:29.046Z,0.30
2022-12-08T13:31:09.007Z,0.60
2022-12-08T13:33:45.187Z,1.15
2022-12-08T13:36:36.855Z,0.50
2022-12-08T13:39:07.543Z,1.17
2022-12-08T13:41:41.922Z,1.38
2022-12-08T13:45:18.774Z,1.02
2022-12-08T13:47:34.686Z,1.25
2022-12-08T13:51:23.734Z,0.90
2022-12-08T14:00:21.156Z,0.68
2022-12-08T14:03:31.866Z,2.65
2022-12-08T14:06:14.737Z,0.95
2022-12-08T14:09:01.051Z,0.70
2022-12-08T14:11:39.351Z,0.60
2022-12-08T14:15:02.036Z,1.13
2022-12-08T14:17:28.239Z,1.00
2022-12-08T14:19:58.013Z,1.58
2022-12-08T14:22:25.675Z,3.05
2022-12-08T14:24:54.477Z,1.25
2022-12-08T14:27:33.872Z,1.10
2022-12-08T14:30:18.630Z,1.45
2022-12-08T14:32:56.060Z,1.33
2022-12-08T14:35:38.741Z,1.67
2022-12-08T14:38:14.459Z,2.40
2022-12-08T14:41:02.081Z,1.17
2022-12-08T14:43:41.662Z,1.83
2022-12-08T14:46:38.333Z,2.35
2022-12-08T14:49:08.220Z,1.40
2022-12-08T14:51:36.896Z,1.25
2022-12-08T14:54:18.793Z,1.75
2022-12-08T14:56:52.879Z,1.63
2022-12-08T14:59:32.599Z,1.98
2022-12-08T15:02:21.877Z,1.52
2022-12-08T15:04:56.709Z,1.95
2022-12-08T15:07:27.745Z,2.70
2022-12-08T15:14:35.414Z,2.15
2022-12-08T15:17:03.716Z,1.50
2022-12-08T15:19:39.951Z,3.13
2022-12-08T15:22:24.262Z,3.72
2022-12-08T15:24:51.502Z,2.65
2022-12-08T15:27:21.167Z,3.58
2022-12-08T15:29:52.634Z,3.72
2022-12-08T15:32:36.285Z,3.33
2022-12-08T15:35:14.600Z,4.50
2022-12-08T15:37:43.957Z,4.47
2022-12-08T15:40:21.054Z,4.10
2022-12-08T15:42:49.011Z,4.72
2022-12-08T15:45:17.443Z,3.63
2022-12-08T15:47:45.471Z,3.15
2022-12-08T15:50:20.005Z,3.30
2022-12-08T15:52:50.483Z,3.58
2022-12-08T15:55:23.346Z,3.25
2022-12-08T16:00:57.421Z,3.33
2022-12-08T16:04:13.082Z,3.42
2022-12-08T16:09:20.254Z,3.78
2022-12-08T16:12:10.226Z,3.13
2022-12-08T16:17:26.853Z,2.72
2022-12-08T16:19:57.098Z,3.13
2022-12-08T16:25:19.932Z,4.50
2022-12-08T16:28:12.565Z,3.67
2022-12-08T16:30:41.134Z,3.22
2022-12-08T16:33:09.998Z,4.25
2022-12-08T16:35:37.123Z,4.72
2022-12-08T16:38:04.910Z,4.05
2022-12-08T16:40:33.544Z,6.00
2022-12-08T16:43:00.531Z,5.85
2022-12-08T16:45:29.845Z,5.28
2022-12-08T16:48:01.491Z,5.85
2022-12-08T16:50:36.631Z,5.22
2022-12-08T16:53:07.055Z,4.97
2022-12-08T16:55:35.642Z,5.35
2022-12-08T16:58:18.659Z,4.45
2022-12-08T17:00:48.641Z,5.03
2022-12-08T17:03:17.776Z,4.30
2022-12-08T17:05:49.785Z,5.50
2022-12-08T17:08:37.880Z,5.03
2022-12-08T17:11:08.217Z,5.40
2022-12-08T17:13:41.702Z,5.15
2022-12-08T17:16:15.724Z,5.63
2022-12-08T17:18:45.648Z,5.07
2022-12-08T17:21:15.484Z,5.78
2022-12-08T17:23:45.840Z,5.95
2022-12-08T17:26:14.587Z,4.82
2022-12-08T17:28:59.978Z,5.20
2022-12-08T17:31:30.170Z,6.93
2022-12-08T17:34:04.983Z,5.63
2022-12-08T17:36:55.464Z,6.30
2022-12-08T17:39:26.576Z,7.47
2022-12-08T17:41:56.635Z,7.55
2022-12-08T17:44:28.926Z,8.95
2022-12-08T17:46:56.153Z,11.50
2022-12-08T17:49:25.838Z,10.55
2022-12-08T17:51:55.894Z,10.00
2022-12-08T17:54:26.174Z,10.52
2022-12-08T17:56:58.714Z,9.15
2022-12-08T17:59:27.803Z,13.00
2022-12-08T18:01:56.410Z,12.05
2022-12-08T18:04:28.240Z,10.95
2022-12-08T18:06:55.586Z,12.43
2022-12-08T18:09:29.333Z,11.68
2022-12-08T18:11:56.697Z,11.27
2022-12-08T18:14:26.606Z,9.52
2022-12-08T18:16:56.611Z,10.48
2022-12-08T18:19:26.701Z,10.32
2022-12-08T18:21:53.975Z,9.25
2022-12-08T18:24:23.513Z,7.20
2022-12-08T18:26:55.435Z,7.20
2022-12-08T18:29:23.163Z,8.15
2022-12-08T18:31:50.765Z,7.03
2022-12-08T18:34:21.125Z,7.78
2022-12-08T18:39:25.467Z,6.80
2022-12-08T18:41:53.207Z,7.82
2022-12-08T18:44:20.891Z,7.47
2022-12-08T18:46:48.289Z,7.18
2022-12-08T18:49:26.727Z,7.43
2022-12-08T18:51:54.166Z,8.95
2022-12-08T18:54:27.688Z,6.95
2022-12-08T18:57:05.040Z,8.02
2022-12-08T18:59:32.628Z,8.55
2022-12-08T19:02:00.045Z,8.60
2022-12-08T19:04:28.761Z,8.50
2022-12-08T19:06:57.530Z,8.98
2022-12-08T19:09:29.145Z,8.32
2022-12-08T19:11:56.952Z,9.85
2022-12-08T19:14:28.474Z,9.50
2022-12-08T19:16:57.260Z,7.90
2022-12-08T19:19:25.172Z,7.80
2022-12-08T19:21:53.492Z,9.65
2022-12-08T19:24:20.630Z,8.90
2022-12-08T19:26:50.085Z,11.13
2022-12-08T19:29:17.333Z,10.82
2022-12-08T19:31:44.764Z,10.60
2022-12-08T19:34:13.677Z,16.55
2022-12-08T19:36:44.515Z,14.85
2022-12-08T19:39:34.821Z,14.63
2022-12-08T19:42:24.786Z,15.60
2022-12-08T19:44:54.838Z,16.88
2022-12-08T19:47:24.328Z,12.82
2022-12-08T19:49:52.639Z,16.65
2022-12-08T19:52:27.357Z,16.25
2022-12-08T19:54:54.340Z,14.52
2022-12-08T19:57:21.381Z,13.18
2022-12-08T19:59:56.208Z,13.35
2022-12-08T20:02:26.809Z,12.23
2022-12-08T20:04:56.940Z,12.65
2022-12-08T20:07:26.829Z,14.32
2022-12-08T20:09:53.940Z,12.75
2022-12-08T20:12:20.972Z,12.27
2022-12-08T20:14:49.403Z,13.35
2022-12-08T20:17:16.700Z,12.20
2022-12-08T20:19:43.765Z,13.90
2022-12-08T20:22:10.831Z,11.38
2022-12-08T20:24:38.025Z,11.00
2022-12-08T20:27:05.142Z,8.90
2022-12-08T20:29:32.321Z,9.18
2022-12-08T20:31:59.415Z,7.60
2022-12-08T20:34:26.691Z,7.68
2022-12-08T20:36:53.743Z,7.18
2022-12-08T20:39:20.912Z,7.03
2022-12-08T20:41:48.130Z,7.10
2022-12-08T20:44:15.066Z,7.22
2022-12-08T20:46:46.374Z,8.82
2022-12-08T20:49:16.197Z,9.45
2022-12-08T20:51:44.460Z,8.35
2022-12-08T20:54:11.646Z,7.65
2022-12-08T20:56:43.417Z,8.00
2022-12-08T20:59:17.757Z,6.85
2022-12-08T21:01:44.872Z,8.52
2022-12-08T21:04:13.064Z,9.57
2022-12-08T21:06:40.334Z,8.85
2022-12-08T21:09:07.708Z,8.18
2022-12-08T21:11:35.876Z,9.93
2022-12-08T21:14:03.012Z,9.10
2022-12-08T21:16:32.793Z,8.77
2022-12-08T21:19:00.622Z,7.95
2022-12-08T21:21:30.072Z,8.07
2022-12-08T21:23:57.356Z,8.25
2022-12-08T21:26:26.205Z,13.82
2022-12-08T21:28:58.904Z,13.50
2022-12-08T21:33:55.296Z,12.60
2022-12-08T21:36:22.982Z,16.30
2022-12-08T21:38:51.295Z,14.20
2022-12-08T21:41:41.296Z,15.05
2022-12-08T21:44:11.371Z,13.95
2022-12-08T21:46:38.569Z,13.95
2022-12-08T21:49:05.724Z,13.82
2022-12-08T21:51:33.822Z,18.38
2022-12-08T21:54:01.033Z,18.45
2022-12-08T21:56:28.197Z,16.63
2022-12-08T21:58:55.282Z,16.50
2022-12-08T22:01:24.884Z,20.40
2022-12-08T22:03:52.004Z,19.60
2022-12-08T22:06:19.376Z,16.92
2022-12-08T22:08:46.856Z,15.60
2022-12-08T22:11:13.999Z,15.60
2022-12-08T22:13:42.136Z,15.57
2022-12-08T22:16:14.425Z,14.60
2022-12-08T22:18:42.512Z,16.02
2022-12-08T22:21:15.070Z,16.08
2022-12-08T22:23:42.920Z,14.55
2022-12-08T22:26:11.138Z,16.50
2022-12-08T22:28:41.075Z,14.35
2022-12-08T22:31:16.133Z,14.65
2022-12-08T22:33:44.291Z,12.20
2022-12-08T22:36:17.461Z,14.57
2022-12-08T22:38:44.806Z,10.75
2022-12-08T22:41:12.008Z,11.75
2022-12-08T22:43:39.251Z,11.32
2022-12-08T22:46:26.424Z,9.68
2022-12-08T22:48:54.283Z,12.20
2022-12-08T22:51:21.165Z,12.10
2022-12-08T22:53:48.382Z,10.20
2022-12-08T22:56:16.631Z,13.65
2022-12-08T22:58:44.474Z,14.07
2022-12-08T23:01:27.200Z,16.83
2022-12-08T23:03:55.050Z,18.17
2022-12-08T23:06:26.475Z,18.05
2022-12-08T23:08:54.734Z,16.30
2022-12-08T23:11:23.527Z,14.65
2022-12-08T23:13:51.124Z,14.00
2022-12-08T23:16:18.500Z,14.93
2022-12-08T23:18:46.379Z,12.73
2022-12-08T23:21:18.928Z,13.27
2022-12-08T23:23:46.256Z,11.05
2022-12-08T23:26:26.876Z,16.02
2022-12-08T23:28:57.791Z,14.80
2022-12-08T23:31:25.646Z,15.77
2022-12-08T23:33:53.642Z,15.98
2022-12-08T23:36:22.577Z,15.75
2022-12-08T23:38:49.561Z,15.13
2022-12-08T23:41:16.841Z,13.20
2022-12-08T23:43:49.883Z,15.30
2022-12-08T23:46:19.688Z,13.98
2022-12-08T23:48:47.380Z,17.15
2022-12-08T23:51:15.081Z,12.68
2022-12-08T23:53:43.127Z,14.43
2022-12-08T23:56:13.503Z,15.18
2022-12-08T23:58:42.212Z,13.65
